Terminal Aerodrome Forecast
Issued by NWS Shreveport, LA

Home | Current Version | Previous Version | Text Only | Print | Product List | Glossary On
Versions: 1 2 3 4 5 6 7 8 9 10 11 12 13 14 15 16 17 18
000
FTUS44 KSHV 240700 AAA
TAFELD
TAF AMD
KELD 240702Z 2407/2506 VRB03KT 2SM BR BKN004
      TEMPO 2407/2410 1/2SM FG VV002
     FM241000 20002KT 4SM BR SKC
     FM241300 25004KT P6SM SCT030=

USA.gov is the U.S. government's official web portal to all federal, state and local government web resources and services.